David Ellis — WDD5476 — position and weather

sailwx.info

Track history (hours):
 
Tides and Currents Weather Stations Pressure Air Temp Water Temp Dewpoint Dewpoint Depression Visibility Wind Speed Wind Dir Waves Ship Positions

David Ellis

Owner: Nagle, David m, Sebastopol, CA. More information available from US FCC via Universal Licensing System and Coast Guard Vessel Documentation Center.

Last reported at 2018-Jun-13 17:23 UTC. Time now 2018-Jul-23 15:16 UTC.
Position N 54°30' W 130°31'.
Warning: this ship's position is 39 days out of date.

Length 16 m.

Type: Pleasure craft. MMSI: 367158940.

Date/timePositionNaut miles runAvg speedWind from/ knotsBaromVisibWave heightAir tempDewpointWater temp
2018-Jun-13 17:23N 54°30' W 130°31'4 7.0
2018-Jun-13 16:49N 54°26' W 130°32'3 7.1
2018-Jun-13 16:27N 54°24' W 130°33'3 6.1
2018-Jun-13 16:00N 54°21' W 130°31'2 4.1
2018-Jun-13 15:29N 54°20' W 130°28'2 4.2
2018-Jun-13 15:00N 54°19' W 130°25'2 4.7
2018-Jun-13 14:30N 54°19' W 130°21'1 0.1
2018-Jun-13 05:43N 54°19' W 130°19'0 0.0
2018-Jun-13 05:25N 54°19' W 130°19'0 0.0
2018-Jun-13 04:43N 54°19' W 130°19'0 0.0
2018-Jun-13 04:25N 54°19' W 130°19'0 0.0
2018-Jun-13 03:55N 54°19' W 130°19'0 0.0
2018-Jun-11 22:44N 54°19' W 130°19'0 0.4
2018-Jun-11 22:29N 54°19' W 130°19'3 5.9
2018-Jun-11 22:00N 54°17' W 130°22'3 6.3
2018-Jun-11 21:30N 54°14' W 130°21'4 7.2
2018-Jun-11 21:00N 54°10' W 130°20'4 7.6
2018-Jun-11 20:30N 54°07' W 130°17'4 7.6
2018-Jun-11 20:00N 54°03' W 130°14'4 7.7
2018-Jun-11 19:30N 53°60' W 130°13'4 7.3
2018-Jun-11 19:00N 53°56' W 130°11'3 6.8
2018-Jun-11 18:30N 53°54' W 130°06'3 7.1
2018-Jun-11 18:00N 53°51' W 130°02'  
2018-Jun-04 00:00N 52°17' W 127°46'  
Track history (hours):
 
Tides and Currents Weather Stations Pressure Air Temp Water Temp Dewpoint Dewpoint Depression Visibility Wind Speed Wind Dir Waves Ship Positions

David Ellis

Owner: Nagle, David m, Sebastopol, CA. More information available from US FCC via Universal Licensing System and Coast Guard Vessel Documentation Center.

Last reported at 2018-Jun-13 17:23 UTC. Time now 2018-Jul-23 15:16 UTC.
Position N 54°30' W 130°31'.
Warning: this ship's position is 39 days out of date.

Length 16 m.

Type: Pleasure craft. MMSI: 367158940.

Date/timePositionNaut miles runAvg speedWind from/ knotsBaromVisibWave heightAir tempDewpointWater temp
2018-Jun-13 17:23N 54°30' W 130°31'4 7.0
2018-Jun-13 16:49N 54°26' W 130°32'3 7.1
2018-Jun-13 16:27N 54°24' W 130°33'3 6.1
2018-Jun-13 16:00N 54°21' W 130°31'2 4.1
2018-Jun-13 15:29N 54°20' W 130°28'2 4.2
2018-Jun-13 15:00N 54°19' W 130°25'2 4.7
2018-Jun-13 14:30N 54°19' W 130°21'1 0.1
2018-Jun-13 05:43N 54°19' W 130°19'0 0.0
2018-Jun-13 05:25N 54°19' W 130°19'0 0.0
2018-Jun-13 04:43N 54°19' W 130°19'0 0.0
2018-Jun-13 04:25N 54°19' W 130°19'0 0.0
2018-Jun-13 03:55N 54°19' W 130°19'0 0.0
2018-Jun-11 22:44N 54°19' W 130°19'0 0.4
2018-Jun-11 22:29N 54°19' W 130°19'3 5.9
2018-Jun-11 22:00N 54°17' W 130°22'3 6.3
2018-Jun-11 21:30N 54°14' W 130°21'4 7.2
2018-Jun-11 21:00N 54°10' W 130°20'4 7.6
2018-Jun-11 20:30N 54°07' W 130°17'4 7.6
2018-Jun-11 20:00N 54°03' W 130°14'4 7.7
2018-Jun-11 19:30N 53°60' W 130°13'4 7.3
2018-Jun-11 19:00N 53°56' W 130°11'3 6.8
2018-Jun-11 18:30N 53°54' W 130°06'3 7.1
2018-Jun-11 18:00N 53°51' W 130°02'  
2018-Jun-04 00:00N 52°17' W 127°46'  

Dump ship's entire track history